sensor_id;sensor_type;location;lat;lon;timestamp;P1;durP1;ratioP1;P2;durP2;ratioP2
23148;SDS011;11743;51.228;22.498;2022-09-25T00:00:02;43.22;;;28.77;;
23148;SDS011;11743;51.228;22.498;2022-09-25T00:00:24;42.78;;;27.27;;
23148;SDS011;11743;51.228;22.498;2022-09-25T00:00:46;41.95;;;26.63;;
23148;SDS011;11743;51.228;22.498;2022-09-25T00:01:09;41.88;;;26.55;;
23148;SDS011;11743;51.228;22.498;2022-09-25T00:01:32;42.60;;;26.88;;
23148;SDS011;11743;51.228;22.498;2022-09-25T00:01:54;44.67;;;27.08;;
23148;SDS011;11743;51.228;22.498;2022-09-25T00:02:16;40.63;;;26.80;;
23148;SDS011;11743;51.228;22.498;2022-09-25T00:02:37;43.50;;;27.25;;
23148;SDS011;11743;51.228;22.498;2022-09-25T00:02:59;42.72;;;27.13;;
23148;SDS011;11743;51.228;22.498;2022-09-25T00:03:22;42.60;;;28.13;;
23148;SDS011;11743;51.228;22.498;2022-09-25T00:03:46;42.40;;;27.15;;
23148;SDS011;11743;51.228;22.498;2022-09-25T00:04:08;42.55;;;26.63;;
23148;SDS011;11743;51.228;22.498;2022-09-25T00:04:30;40.22;;;26.95;;
23148;SDS011;11743;51.228;22.498;2022-09-25T00:04:52;39.85;;;27.08;;
23148;SDS011;11743;51.228;22.498;2022-09-25T00:05:14;42.20;;;26.77;;
23148;SDS011;11743;51.228;22.498;2022-09-25T00:05:39;40.00;;;26.98;;
23148;SDS011;11743;51.228;22.498;2022-09-25T00:06:06;41.15;;;27.25;;
23148;SDS011;11743;51.228;22.498;2022-09-25T00:06:38;40.30;;;26.17;;
23148;SDS011;11743;51.228;22.498;2022-09-25T00:07:01;41.20;;;26.00;;
23148;SDS011;11743;51.228;22.498;2022-09-25T00:07:23;41.30;;;26.55;;
23148;SDS011;11743;51.228;22.498;2022-09-25T00:07:45;42.58;;;27.35;;
23148;SDS011;11743;51.228;22.498;2022-09-25T00:08:07;42.97;;;26.50;;
23148;SDS011;11743;51.228;22.498;2022-09-25T00:08:30;40.55;;;25.60;;
23148;SDS011;11743;51.228;22.498;2022-09-25T00:08:53;44.22;;;27.13;;
23148;SDS011;11743;51.228;22.498;2022-09-25T00:09:16;44.50;;;26.25;;
23148;SDS011;11743;51.228;22.498;2022-09-25T00:09:41;40.35;;;25.55;;
23148;SDS011;11743;51.228;22.498;2022-09-25T00:10:03;44.10;;;27.42;;
23148;SDS011;11743;51.228;22.498;2022-09-25T00:10:25;45.00;;;27.67;;
23148;SDS011;11743;51.228;22.498;2022-09-25T00:10:49;42.90;;;27.15;;
23148;SDS011;11743;51.228;22.498;2022-09-25T00:11:13;39.95;;;25.67;;
23148;SDS011;11743;51.228;22.498;2022-09-25T00:11:37;43.15;;;27.98;;
23148;SDS011;11743;51.228;22.498;2022-09-25T00:11:59;45.95;;;28.00;;
23148;SDS011;11743;51.228;22.498;2022-09-25T00:12:21;43.10;;;27.13;;
23148;SDS011;11743;51.228;22.498;2022-09-25T00:12:43;37.95;;;25.08;;
23148;SDS011;11743;51.228;22.498;2022-09-25T00:13:04;41.33;;;26.05;;
23148;SDS011;11743;51.228;22.498;2022-09-25T00:13:26;41.65;;;26.33;;
23148;SDS011;11743;51.228;22.498;2022-09-25T00:13:50;42.60;;;25.85;;
23148;SDS011;11743;51.228;22.498;2022-09-25T00:14:12;47.80;;;27.35;;
23148;SDS011;11743;51.228;22.498;2022-09-25T00:14:34;43.55;;;26.85;;
23148;SDS011;11743;51.228;22.498;2022-09-25T00:14:56;41.38;;;26.55;;
23148;SDS011;11743;51.228;22.498;2022-09-25T00:15:18;38.92;;;25.85;;
23148;SDS011;11743;51.228;22.498;2022-09-25T00:15:50;41.90;;;26.83;;
23148;SDS011;11743;51.228;22.498;2022-09-25T00:16:15;43.75;;;26.00;;
23148;SDS011;11743;51.228;22.498;2022-09-25T00:16:39;41.35;;;25.02;;
23148;SDS011;11743;51.228;22.498;2022-09-25T00:17:01;42.78;;;26.58;;
23148;SDS011;11743;51.228;22.498;2022-09-25T00:17:23;39.85;;;25.75;;
23148;SDS011;11743;51.228;22.498;2022-09-25T00:17:46;40.20;;;25.15;;
23148;SDS011;11743;51.228;22.498;2022-09-25T00:18:08;40.47;;;25.77;;
23148;SDS011;11743;51.228;22.498;2022-09-25T00:18:30;40.33;;;26.25;;
23148;SDS011;11743;51.228;22.498;2022-09-25T00:19:12;41.60;;;24.97;;
23148;SDS011;11743;51.228;22.498;2022-09-25T00:19:59;38.75;;;24.25;;
23148;SDS011;11743;51.228;22.498;2022-09-25T00:20:21;41.20;;;25.80;;
23148;SDS011;11743;51.228;22.498;2022-09-25T00:20:46;43.75;;;26.85;;
23148;SDS011;11743;51.228;22.498;2022-09-25T00:21:09;36.72;;;24.58;;
23148;SDS011;11743;51.228;22.498;2022-09-25T00:21:33;41.63;;;24.85;;
23148;SDS011;11743;51.228;22.498;2022-09-25T00:21:58;38.38;;;23.88;;
23148;SDS011;11743;51.228;22.498;2022-09-25T00:22:21;36.63;;;23.83;;
23148;SDS011;11743;51.228;22.498;2022-09-25T00:22:45;40.58;;;23.92;;
23148;SDS011;11743;51.228;22.498;2022-09-25T00:23:07;39.40;;;24.10;;
23148;SDS011;11743;51.228;22.498;2022-09-25T00:23:29;44.07;;;25.70;;
23148;SDS011;11743;51.228;22.498;2022-09-25T00:23:51;44.67;;;26.02;;
23148;SDS011;11743;51.228;22.498;2022-09-25T00:24:13;41.53;;;25.95;;
23148;SDS011;11743;51.228;22.498;2022-09-25T00:24:35;42.65;;;26.38;;
23148;SDS011;11743;51.228;22.498;2022-09-25T00:24:57;39.10;;;25.63;;
23148;SDS011;11743;51.228;22.498;2022-09-25T00:25:19;39.38;;;25.20;;
23148;SDS011;11743;51.228;22.498;2022-09-25T00:25:41;38.85;;;25.42;;
23148;SDS011;11743;51.228;22.498;2022-09-25T00:26:03;38.33;;;24.52;;
23148;SDS011;11743;51.228;22.498;2022-09-25T00:26:27;40.83;;;25.42;;
23148;SDS011;11743;51.228;22.498;2022-09-25T00:26:50;40.45;;;24.30;;
23148;SDS011;11743;51.228;22.498;2022-09-25T00:27:14;39.88;;;24.80;;
23148;SDS011;11743;51.228;22.498;2022-09-25T00:27:36;40.63;;;25.65;;
23148;SDS011;11743;51.228;22.498;2022-09-25T00:27:58;38.53;;;24.85;;
23148;SDS011;11743;51.228;22.498;2022-09-25T00:28:19;39.33;;;24.85;;
23148;SDS011;11743;51.228;22.498;2022-09-25T00:28:41;41.53;;;25.42;;
23148;SDS011;11743;51.228;22.498;2022-09-25T00:29:04;37.08;;;24.23;;
23148;SDS011;11743;51.228;22.498;2022-09-25T00:29:27;37.13;;;25.08;;
23148;SDS011;11743;51.228;22.498;2022-09-25T00:29:51;36.05;;;25.08;;
23148;SDS011;11743;51.228;22.498;2022-09-25T00:30:13;36.05;;;23.48;;
23148;SDS011;11743;51.228;22.498;2022-09-25T00:30:38;37.13;;;22.90;;
23148;SDS011;11743;51.228;22.498;2022-09-25T00:31:01;38.90;;;24.63;;
23148;SDS011;11743;51.228;22.498;2022-09-25T00:31:24;38.53;;;24.70;;
23148;SDS011;11743;51.228;22.498;2022-09-25T00:31:50;43.13;;;25.17;;
23148;SDS011;11743;51.228;22.498;2022-09-25T00:32:12;40.53;;;24.90;;
23148;SDS011;11743;51.228;22.498;2022-09-25T00:32:35;36.97;;;24.05;;
23148;SDS011;11743;51.228;22.498;2022-09-25T00:32:57;35.35;;;23.58;;
23148;SDS011;11743;51.228;22.498;2022-09-25T00:33:20;36.35;;;24.08;;
23148;SDS011;11743;51.228;22.498;2022-09-25T00:33:42;39.83;;;25.23;;
23148;SDS011;11743;51.228;22.498;2022-09-25T00:34:04;37.33;;;24.38;;
23148;SDS011;11743;51.228;22.498;2022-09-25T00:34:26;39.00;;;23.80;;
23148;SDS011;11743;51.228;22.498;2022-09-25T00:34:48;40.20;;;24.77;;
23148;SDS011;11743;51.228;22.498;2022-09-25T00:35:10;37.92;;;23.50;;
23148;SDS011;11743;51.228;22.498;2022-09-25T00:35:32;37.80;;;23.73;;
23148;SDS011;11743;51.228;22.498;2022-09-25T00:35:54;35.43;;;21.93;;
23148;SDS011;11743;51.228;22.498;2022-09-25T00:36:15;35.92;;;22.48;;
23148;SDS011;11743;51.228;22.498;2022-09-25T00:36:39;39.92;;;23.73;;
23148;SDS011;11743;51.228;22.498;2022-09-25T00:37:01;37.03;;;23.25;;
23148;SDS011;11743;51.228;22.498;2022-09-25T00:37:23;38.47;;;23.70;;
23148;SDS011;11743;51.228;22.498;2022-09-25T00:37:46;37.33;;;22.00;;
23148;SDS011;11743;51.228;22.498;2022-09-25T00:38:08;37.45;;;22.90;;
23148;SDS011;11743;51.228;22.498;2022-09-25T00:38:30;37.70;;;23.15;;
23148;SDS011;11743;51.228;22.498;2022-09-25T00:38:55;36.60;;;22.42;;
23148;SDS011;11743;51.228;22.498;2022-09-25T00:39:18;36.45;;;22.75;;
23148;SDS011;11743;51.228;22.498;2022-09-25T00:39:40;36.95;;;22.05;;
23148;SDS011;11743;51.228;22.498;2022-09-25T00:40:02;34.05;;;22.13;;
23148;SDS011;11743;51.228;22.498;2022-09-25T00:40:25;35.00;;;22.25;;
23148;SDS011;11743;51.228;22.498;2022-09-25T00:40:47;34.03;;;21.77;;
23148;SDS011;11743;51.228;22.498;2022-09-25T00:41:09;37.13;;;23.08;;
23148;SDS011;11743;51.228;22.498;2022-09-25T00:41:31;38.95;;;23.25;;
23148;SDS011;11743;51.228;22.498;2022-09-25T00:41:53;37.78;;;23.20;;
23148;SDS011;11743;51.228;22.498;2022-09-25T00:42:18;38.67;;;23.15;;
23148;SDS011;11743;51.228;22.498;2022-09-25T00:42:41;37.17;;;23.48;;
23148;SDS011;11743;51.228;22.498;2022-09-25T00:43:04;37.92;;;23.30;;
23148;SDS011;11743;51.228;22.498;2022-09-25T00:44:01;34.65;;;22.05;;
23148;SDS011;11743;51.228;22.498;2022-09-25T00:45:20;36.30;;;22.15;;
23148;SDS011;11743;51.228;22.498;2022-09-25T00:45:42;30.73;;;20.98;;
23148;SDS011;11743;51.228;22.498;2022-09-25T00:46:09;31.23;;;20.48;;
23148;SDS011;11743;51.228;22.498;2022-09-25T00:46:50;30.25;;;20.00;;
23148;SDS011;11743;51.228;22.498;2022-09-25T00:47:14;33.78;;;20.48;;
23148;SDS011;11743;51.228;22.498;2022-09-25T00:47:52;32.80;;;20.38;;
23148;SDS011;11743;51.228;22.498;2022-09-25T00:48:28;34.90;;;21.75;;
23148;SDS011;11743;51.228;22.498;2022-09-25T00:49:27;30.75;;;20.85;;
23148;SDS011;11743;51.228;22.498;2022-09-25T00:49:49;31.55;;;20.73;;
23148;SDS011;11743;51.228;22.498;2022-09-25T00:50:36;33.20;;;20.60;;
23148;SDS011;11743;51.228;22.498;2022-09-25T00:51:02;33.85;;;20.30;;
23148;SDS011;11743;51.228;22.498;2022-09-25T00:51:36;31.33;;;19.50;;
23148;SDS011;11743;51.228;22.498;2022-09-25T00:52:06;29.33;;;18.80;;
23148;SDS011;11743;51.228;22.498;2022-09-25T00:52:33;30.10;;;19.17;;
23148;SDS011;11743;51.228;22.498;2022-09-25T00:52:55;30.80;;;19.27;;
23148;SDS011;11743;51.228;22.498;2022-09-25T00:53:33;33.17;;;20.75;;
23148;SDS011;11743;51.228;22.498;2022-09-25T00:54:01;30.98;;;19.75;;
23148;SDS011;11743;51.228;22.498;2022-09-25T00:54:30;29.98;;;18.75;;
23148;SDS011;11743;51.228;22.498;2022-09-25T00:54:58;31.05;;;19.63;;
23148;SDS011;11743;51.228;22.498;2022-09-25T00:55:23;30.45;;;18.85;;
23148;SDS011;11743;51.228;22.498;2022-09-25T00:55:45;30.02;;;19.38;;
23148;SDS011;11743;51.228;22.498;2022-09-25T00:56:07;27.95;;;17.83;;
23148;SDS011;11743;51.228;22.498;2022-09-25T00:56:34;30.42;;;18.02;;
23148;SDS011;11743;51.228;22.498;2022-09-25T00:57:03;27.65;;;18.48;;
23148;SDS011;11743;51.228;22.498;2022-09-25T00:57:30;31.35;;;18.85;;
23148;SDS011;11743;51.228;22.498;2022-09-25T00:57:53;30.60;;;19.85;;
23148;SDS011;11743;51.228;22.498;2022-09-25T00:58:18;31.38;;;20.05;;
23148;SDS011;11743;51.228;22.498;2022-09-25T00:58:42;32.58;;;20.05;;
23148;SDS011;11743;51.228;22.498;2022-09-25T00:59:04;30.05;;;20.23;;
23148;SDS011;11743;51.228;22.498;2022-09-25T00:59:29;31.35;;;19.45;;
23148;SDS011;11743;51.228;22.498;2022-09-25T00:59:56;34.25;;;20.27;;
23148;SDS011;11743;51.228;22.498;2022-09-25T01:00:22;29.60;;;19.15;;
23148;SDS011;11743;51.228;22.498;2022-09-25T01:00:44;31.67;;;20.08;;
23148;SDS011;11743;51.228;22.498;2022-09-25T01:01:06;30.95;;;20.02;;
23148;SDS011;11743;51.228;22.498;2022-09-25T01:01:32;31.10;;;20.73;;
23148;SDS011;11743;51.228;22.498;2022-09-25T01:01:54;30.13;;;20.60;;
23148;SDS011;11743;51.228;22.498;2022-09-25T01:02:23;30.85;;;19.90;;
23148;SDS011;11743;51.228;22.498;2022-09-25T01:02:51;32.42;;;20.70;;
23148;SDS011;11743;51.228;22.498;2022-09-25T01:03:15;30.83;;;19.98;;
23148;SDS011;11743;51.228;22.498;2022-09-25T01:03:39;32.95;;;21.80;;
23148;SDS011;11743;51.228;22.498;2022-09-25T01:04:02;31.50;;;20.67;;
23148;SDS011;11743;51.228;22.498;2022-09-25T01:04:24;32.72;;;20.35;;
23148;SDS011;11743;51.228;22.498;2022-09-25T01:04:49;33.88;;;22.05;;
23148;SDS011;11743;51.228;22.498;2022-09-25T01:05:13;31.80;;;21.20;;
23148;SDS011;11743;51.228;22.498;2022-09-25T01:05:40;32.78;;;21.20;;
23148;SDS011;11743;51.228;22.498;2022-09-25T01:06:05;34.65;;;21.50;;
23148;SDS011;11743;51.228;22.498;2022-09-25T01:06:27;32.35;;;21.38;;
23148;SDS011;11743;51.228;22.498;2022-09-25T01:06:49;30.42;;;20.27;;
23148;SDS011;11743;51.228;22.498;2022-09-25T01:07:11;30.90;;;20.35;;
23148;SDS011;11743;51.228;22.498;2022-09-25T01:07:36;31.98;;;20.25;;
23148;SDS011;11743;51.228;22.498;2022-09-25T01:08:00;31.50;;;20.90;;
23148;SDS011;11743;51.228;22.498;2022-09-25T01:08:26;32.42;;;20.67;;
23148;SDS011;11743;51.228;22.498;2022-09-25T01:08:49;32.33;;;20.35;;
23148;SDS011;11743;51.228;22.498;2022-09-25T01:09:12;31.15;;;20.65;;
23148;SDS011;11743;51.228;22.498;2022-09-25T01:09:34;31.27;;;21.20;;
23148;SDS011;11743;51.228;22.498;2022-09-25T01:09:59;34.92;;;21.33;;
23148;SDS011;11743;51.228;22.498;2022-09-25T01:10:22;32.78;;;21.05;;
23148;SDS011;11743;51.228;22.498;2022-09-25T01:10:44;31.40;;;20.40;;
23148;SDS011;11743;51.228;22.498;2022-09-25T01:11:06;30.58;;;19.83;;
23148;SDS011;11743;51.228;22.498;2022-09-25T01:11:29;32.78;;;22.02;;
23148;SDS011;11743;51.228;22.498;2022-09-25T01:11:51;34.30;;;21.80;;
23148;SDS011;11743;51.228;22.498;2022-09-25T01:12:13;33.10;;;20.70;;
23148;SDS011;11743;51.228;22.498;2022-09-25T01:12:35;30.70;;;19.95;;
23148;SDS011;11743;51.228;22.498;2022-09-25T01:13:03;37.33;;;22.77;;
23148;SDS011;11743;51.228;22.498;2022-09-25T01:13:26;36.67;;;22.55;;
23148;SDS011;11743;51.228;22.498;2022-09-25T01:13:51;34.08;;;21.92;;
23148;SDS011;11743;51.228;22.498;2022-09-25T01:14:15;32.80;;;21.15;;
23148;SDS011;11743;51.228;22.498;2022-09-25T01:14:38;34.20;;;21.92;;
23148;SDS011;11743;51.228;22.498;2022-09-25T01:15:00;39.55;;;22.75;;
23148;SDS011;11743;51.228;22.498;2022-09-25T01:15:22;37.20;;;22.77;;
23148;SDS011;11743;51.228;22.498;2022-09-25T01:17:42;35.40;;;23.15;;
23148;SDS011;11743;51.228;22.498;2022-09-25T01:19:25;38.75;;;22.90;;
23148;SDS011;11743;51.228;22.498;2022-09-25T01:21:42;37.92;;;24.38;;
23148;SDS011;11743;51.228;22.498;2022-09-25T01:23:14;41.47;;;25.13;;
23148;SDS011;11743;51.228;22.498;2022-09-25T01:25:33;38.65;;;23.95;;
23148;SDS011;11743;51.228;22.498;2022-09-25T01:30:14;33.65;;;21.77;;
23148;SDS011;11743;51.228;22.498;2022-09-25T01:30:40;36.78;;;22.88;;
23148;SDS011;11743;51.228;22.498;2022-09-25T01:31:17;35.83;;;22.38;;
23148;SDS011;11743;51.228;22.498;2022-09-25T01:33:59;36.78;;;23.52;;
23148;SDS011;11743;51.228;22.498;2022-09-25T01:36:08;37.05;;;24.20;;
23148;SDS011;11743;51.228;22.498;2022-09-25T01:37:42;34.92;;;23.20;;
23148;SDS011;11743;51.228;22.498;2022-09-25T01:38:08;36.70;;;24.08;;
23148;SDS011;11743;51.228;22.498;2022-09-25T01:38:53;40.03;;;23.13;;
23148;SDS011;11743;51.228;22.498;2022-09-25T01:40:47;39.22;;;23.98;;
23148;SDS011;11743;51.228;22.498;2022-09-25T01:41:14;39.08;;;23.35;;
23148;SDS011;11743;51.228;22.498;2022-09-25T01:42:03;37.00;;;23.65;;
23148;SDS011;11743;51.228;22.498;2022-09-25T01:43:12;38.17;;;23.80;;
23148;SDS011;11743;51.228;22.498;2022-09-25T01:43:42;39.75;;;23.73;;
23148;SDS011;11743;51.228;22.498;2022-09-25T01:44:12;36.90;;;23.20;;
23148;SDS011;11743;51.228;22.498;2022-09-25T01:44:45;35.90;;;23.02;;
23148;SDS011;11743;51.228;22.498;2022-09-25T01:45:40;38.58;;;23.92;;
23148;SDS011;11743;51.228;22.498;2022-09-25T01:46:42;34.67;;;22.85;;
23148;SDS011;11743;51.228;22.498;2022-09-25T01:47:08;34.83;;;23.33;;
23148;SDS011;11743;51.228;22.498;2022-09-25T01:47:35;32.55;;;22.25;;
23148;SDS011;11743;51.228;22.498;2022-09-25T01:48:01;36.25;;;22.85;;
23148;SDS011;11743;51.228;22.498;2022-09-25T01:48:29;36.03;;;22.65;;
23148;SDS011;11743;51.228;22.498;2022-09-25T01:49:01;34.80;;;22.48;;
23148;SDS011;11743;51.228;22.498;2022-09-25T01:49:29;35.00;;;21.85;;
23148;SDS011;11743;51.228;22.498;2022-09-25T01:49:57;32.78;;;21.65;;
23148;SDS011;11743;51.228;22.498;2022-09-25T01:51:17;37.10;;;22.38;;
23148;SDS011;11743;51.228;22.498;2022-09-25T01:51:20;33.08;;;21.20;;
23148;SDS011;11743;51.228;22.498;2022-09-25T01:51:50;36.00;;;22.80;;
23148;SDS011;11743;51.228;22.498;2022-09-25T01:52:16;33.72;;;21.77;;
23148;SDS011;11743;51.228;22.498;2022-09-25T01:52:48;36.60;;;22.40;;
23148;SDS011;11743;51.228;22.498;2022-09-25T01:53:14;38.95;;;22.73;;
23148;SDS011;11743;51.228;22.498;2022-09-25T01:53:44;32.47;;;21.67;;
23148;SDS011;11743;51.228;22.498;2022-09-25T01:54:13;37.25;;;22.38;;
23148;SDS011;11743;51.228;22.498;2022-09-25T01:54:42;38.75;;;22.67;;
23148;SDS011;11743;51.228;22.498;2022-09-25T01:55:15;38.63;;;23.23;;
23148;SDS011;11743;51.228;22.498;2022-09-25T01:56:01;36.80;;;22.23;;
23148;SDS011;11743;51.228;22.498;2022-09-25T01:56:54;34.63;;;23.23;;
23148;SDS011;11743;51.228;22.498;2022-09-25T01:58:54;35.78;;;22.08;;
23148;SDS011;11743;51.228;22.498;2022-09-25T01:59:25;36.55;;;22.73;;
23148;SDS011;11743;51.228;22.498;2022-09-25T02:00:20;35.58;;;22.55;;
23148;SDS011;11743;51.228;22.498;2022-09-25T02:00:48;33.90;;;21.85;;
23148;SDS011;11743;51.228;22.498;2022-09-25T02:01:18;34.83;;;22.27;;
23148;SDS011;11743;51.228;22.498;2022-09-25T02:01:48;31.42;;;20.95;;
23148;SDS011;11743;51.228;22.498;2022-09-25T02:02:18;34.92;;;22.70;;
23148;SDS011;11743;51.228;22.498;2022-09-25T02:03:36;37.60;;;22.40;;
23148;SDS011;11743;51.228;22.498;2022-09-25T02:04:12;31.67;;;20.30;;
23148;SDS011;11743;51.228;22.498;2022-09-25T02:05:29;34.22;;;21.25;;
23148;SDS011;11743;51.228;22.498;2022-09-25T02:06:00;35.50;;;22.40;;
23148;SDS011;11743;51.228;22.498;2022-09-25T02:06:25;35.75;;;22.65;;
23148;SDS011;11743;51.228;22.498;2022-09-25T02:06:50;34.88;;;22.10;;
23148;SDS011;11743;51.228;22.498;2022-09-25T02:07:17;33.78;;;22.27;;
23148;SDS011;11743;51.228;22.498;2022-09-25T02:07:52;36.65;;;22.73;;
23148;SDS011;11743;51.228;22.498;2022-09-25T02:08:27;31.35;;;21.17;;
23148;SDS011;11743;51.228;22.498;2022-09-25T02:09:05;33.00;;;21.45;;
23148;SDS011;11743;51.228;22.498;2022-09-25T02:09:32;35.88;;;21.77;;
23148;SDS011;11743;51.228;22.498;2022-09-25T02:10:09;37.88;;;23.30;;
23148;SDS011;11743;51.228;22.498;2022-09-25T02:10:36;38.10;;;23.20;;
23148;SDS011;11743;51.228;22.498;2022-09-25T02:11:09;35.17;;;22.90;;
23148;SDS011;11743;51.228;22.498;2022-09-25T02:11:35;37.40;;;23.08;;
23148;SDS011;11743;51.228;22.498;2022-09-25T02:12:08;37.28;;;22.63;;
23148;SDS011;11743;51.228;22.498;2022-09-25T02:12:44;35.58;;;23.05;;
23148;SDS011;11743;51.228;22.498;2022-09-25T02:13:12;33.92;;;21.83;;
23148;SDS011;11743;51.228;22.498;2022-09-25T02:14:16;34.90;;;22.25;;
23148;SDS011;11743;51.228;22.498;2022-09-25T02:14:45;34.95;;;21.10;;
23148;SDS011;11743;51.228;22.498;2022-09-25T02:15:22;32.72;;;21.25;;
23148;SDS011;11743;51.228;22.498;2022-09-25T02:16:06;32.90;;;21.55;;
23148;SDS011;11743;51.228;22.498;2022-09-25T02:16:38;33.92;;;22.02;;
23148;SDS011;11743;51.228;22.498;2022-09-25T02:17:07;32.22;;;21.30;;
23148;SDS011;11743;51.228;22.498;2022-09-25T02:18:46;31.83;;;19.90;;
23148;SDS011;11743;51.228;22.498;2022-09-25T02:19:28;32.28;;;19.48;;
23148;SDS011;11743;51.228;22.498;2022-09-25T02:20:09;32.90;;;20.90;;
23148;SDS011;11743;51.228;22.498;2022-09-25T02:22:35;34.17;;;20.40;;
23148;SDS011;11743;51.228;22.498;2022-09-25T02:23:04;33.63;;;19.83;;
23148;SDS011;11743;51.228;22.498;2022-09-25T02:24:26;31.23;;;20.30;;
23148;SDS011;11743;51.228;22.498;2022-09-25T02:25:03;34.88;;;21.20;;
23148;SDS011;11743;51.228;22.498;2022-09-25T02:25:42;35.22;;;20.73;;
23148;SDS011;11743;51.228;22.498;2022-09-25T02:26:10;32.00;;;19.88;;
23148;SDS011;11743;51.228;22.498;2022-09-25T02:26:45;31.60;;;20.80;;
23148;SDS011;11743;51.228;22.498;2022-09-25T02:27:11;32.08;;;20.63;;
23148;SDS011;11743;51.228;22.498;2022-09-25T02:27:36;33.67;;;21.45;;
23148;SDS011;11743;51.228;22.498;2022-09-25T02:27:57;32.55;;;21.17;;
23148;SDS011;11743;51.228;22.498;2022-09-25T02:28:20;31.65;;;20.13;;
23148;SDS011;11743;51.228;22.498;2022-09-25T02:28:43;31.50;;;19.73;;
23148;SDS011;11743;51.228;22.498;2022-09-25T02:29:05;32.15;;;20.42;;
23148;SDS011;11743;51.228;22.498;2022-09-25T02:29:28;33.50;;;21.00;;
23148;SDS011;11743;51.228;22.498;2022-09-25T02:29:50;31.50;;;21.23;;
23148;SDS011;11743;51.228;22.498;2022-09-25T02:30:14;31.88;;;20.27;;
23148;SDS011;11743;51.228;22.498;2022-09-25T02:30:36;28.85;;;19.38;;
23148;SDS011;11743;51.228;22.498;2022-09-25T02:30:58;32.55;;;20.45;;
23148;SDS011;11743;51.228;22.498;2022-09-25T02:31:27;32.78;;;20.88;;
23148;SDS011;11743;51.228;22.498;2022-09-25T02:32:02;33.65;;;21.08;;
23148;SDS011;11743;51.228;22.498;2022-09-25T02:32:31;31.65;;;20.30;;
23148;SDS011;11743;51.228;22.498;2022-09-25T02:32:55;32.00;;;20.88;;
23148;SDS011;11743;51.228;22.498;2022-09-25T02:33:25;28.95;;;19.88;;
23148;SDS011;11743;51.228;22.498;2022-09-25T02:33:48;29.92;;;19.42;;
23148;SDS011;11743;51.228;22.498;2022-09-25T02:34:11;31.23;;;20.10;;
23148;SDS011;11743;51.228;22.498;2022-09-25T02:34:38;31.02;;;19.90;;
23148;SDS011;11743;51.228;22.498;2022-09-25T02:35:01;31.95;;;19.67;;
23148;SDS011;11743;51.228;22.498;2022-09-25T02:35:26;30.98;;;19.27;;
23148;SDS011;11743;51.228;22.498;2022-09-25T02:35:48;28.77;;;18.52;;
23148;SDS011;11743;51.228;22.498;2022-09-25T02:36:18;27.77;;;18.52;;
23148;SDS011;11743;51.228;22.498;2022-09-25T02:36:44;29.85;;;19.33;;
23148;SDS011;11743;51.228;22.498;2022-09-25T02:37:12;30.23;;;19.77;;
23148;SDS011;11743;51.228;22.498;2022-09-25T02:37:38;28.40;;;19.30;;
23148;SDS011;11743;51.228;22.498;2022-09-25T02:38:03;30.30;;;20.42;;
23148;SDS011;11743;51.228;22.498;2022-09-25T02:38:32;31.25;;;20.55;;
23148;SDS011;11743;51.228;22.498;2022-09-25T02:38:58;32.00;;;20.20;;
23148;SDS011;11743;51.228;22.498;2022-09-25T02:39:26;33.58;;;20.67;;
23148;SDS011;11743;51.228;22.498;2022-09-25T02:39:51;31.42;;;20.38;;
23148;SDS011;11743;51.228;22.498;2022-09-25T02:40:30;31.33;;;20.20;;
23148;SDS011;11743;51.228;22.498;2022-09-25T02:47:13;36.65;;;23.05;;
23148;SDS011;11743;51.228;22.498;2022-09-25T02:48:34;35.85;;;22.52;;
23148;SDS011;11743;51.228;22.498;2022-09-25T02:50:14;37.00;;;23.30;;
23148;SDS011;11743;51.228;22.498;2022-09-25T02:50:46;38.28;;;23.25;;
23148;SDS011;11743;51.228;22.498;2022-09-25T02:52:03;37.70;;;23.42;;
23148;SDS011;11743;51.228;22.498;2022-09-25T02:52:38;34.47;;;22.50;;
23148;SDS011;11743;51.228;22.498;2022-09-25T02:54:16;36.58;;;23.08;;
23148;SDS011;11743;51.228;22.498;2022-09-25T02:54:45;37.05;;;23.90;;
23148;SDS011;11743;51.228;22.498;2022-09-25T02:55:43;37.08;;;24.02;;
23148;SDS011;11743;51.228;22.498;2022-09-25T02:56:13;37.17;;;22.60;;
23148;SDS011;11743;51.228;22.498;2022-09-25T02:56:42;36.30;;;23.20;;
23148;SDS011;11743;51.228;22.498;2022-09-25T02:57:24;34.72;;;23.60;;
23148;SDS011;11743;51.228;22.498;2022-09-25T02:58:48;40.03;;;24.07;;
23148;SDS011;11743;51.228;22.498;2022-09-25T02:59:22;38.28;;;23.95;;
23148;SDS011;11743;51.228;22.498;2022-09-25T02:59:59;35.97;;;23.50;;
23148;SDS011;11743;51.228;22.498;2022-09-25T03:00:25;38.30;;;23.25;;
23148;SDS011;11743;51.228;22.498;2022-09-25T03:00:48;34.08;;;23.17;;
23148;SDS011;11743;51.228;22.498;2022-09-25T03:01:15;34.63;;;23.25;;
23148;SDS011;11743;51.228;22.498;2022-09-25T03:01:41;35.33;;;22.98;;
23148;SDS011;11743;51.228;22.498;2022-09-25T03:02:04;37.05;;;23.45;;
23148;SDS011;11743;51.228;22.498;2022-09-25T03:02:27;37.53;;;24.15;;
23148;SDS011;11743;51.228;22.498;2022-09-25T03:02:57;35.33;;;23.67;;
23148;SDS011;11743;51.228;22.498;2022-09-25T03:03:24;38.63;;;24.13;;
23148;SDS011;11743;51.228;22.498;2022-09-25T03:03:48;34.92;;;23.52;;
23148;SDS011;11743;51.228;22.498;2022-09-25T03:04:13;37.55;;;23.88;;
23148;SDS011;11743;51.228;22.498;2022-09-25T03:04:38;36.97;;;24.13;;
23148;SDS011;11743;51.228;22.498;2022-09-25T03:05:02;38.67;;;24.08;;
23148;SDS011;11743;51.228;22.498;2022-09-25T03:05:36;39.00;;;24.67;;
23148;SDS011;11743;51.228;22.498;2022-09-25T03:05:58;35.97;;;23.88;;
23148;SDS011;11743;51.228;22.498;2022-09-25T03:06:22;37.00;;;24.45;;
23148;SDS011;11743;51.228;22.498;2022-09-25T03:06:49;36.22;;;23.55;;
23148;SDS011;11743;51.228;22.498;2022-09-25T03:07:24;38.17;;;24.52;;
23148;SDS011;11743;51.228;22.498;2022-09-25T03:07:47;39.53;;;23.80;;
23148;SDS011;11743;51.228;22.498;2022-09-25T03:08:27;35.22;;;23.48;;
23148;SDS011;11743;51.228;22.498;2022-09-25T03:09:03;37.33;;;24.50;;
23148;SDS011;11743;51.228;22.498;2022-09-25T03:09:28;38.15;;;24.58;;
23148;SDS011;11743;51.228;22.498;2022-09-25T03:09:57;39.80;;;23.50;;
23148;SDS011;11743;51.228;22.498;2022-09-25T03:10:22;37.13;;;24.17;;
23148;SDS011;11743;51.228;22.498;2022-09-25T03:10:44;37.38;;;24.30;;
23148;SDS011;11743;51.228;22.498;2022-09-25T03:11:08;37.28;;;24.17;;
23148;SDS011;11743;51.228;22.498;2022-09-25T03:11:35;36.38;;;23.40;;
23148;SDS011;11743;51.228;22.498;2022-09-25T03:12:12;35.35;;;22.45;;
23148;SDS011;11743;51.228;22.498;2022-09-25T03:12:37;36.97;;;24.00;;
23148;SDS011;11743;51.228;22.498;2022-09-25T03:13:15;35.78;;;23.55;;
23148;SDS011;11743;51.228;22.498;2022-09-25T03:13:39;40.33;;;24.77;;
23148;SDS011;11743;51.228;22.498;2022-09-25T03:14:04;39.75;;;23.67;;
23148;SDS011;11743;51.228;22.498;2022-09-25T03:14:26;38.13;;;23.92;;
23148;SDS011;11743;51.228;22.498;2022-09-25T03:14:48;36.53;;;23.13;;
23148;SDS011;11743;51.228;22.498;2022-09-25T03:15:10;38.10;;;23.88;;